sensor_id;sensor_type;location;lat;lon;timestamp;temperature;humidity
21001;DHT22;10658;50.920;12.238;2023-09-07T00:01:27;15.10;99.90
21001;DHT22;10658;50.920;12.238;2023-09-07T00:05:28;15.20;99.90
21001;DHT22;10658;50.920;12.238;2023-09-07T00:09:29;15.00;99.90
21001;DHT22;10658;50.920;12.238;2023-09-07T00:13:29;15.10;99.90
21001;DHT22;10658;50.920;12.238;2023-09-07T00:17:30;15.00;99.90
21001;DHT22;10658;50.920;12.238;2023-09-07T00:21:31;14.90;99.90
21001;DHT22;10658;50.920;12.238;2023-09-07T00:25:32;14.90;99.90
21001;DHT22;10658;50.920;12.238;2023-09-07T00:29:34;14.80;99.90
21001;DHT22;10658;50.920;12.238;2023-09-07T00:33:35;14.80;99.90
21001;DHT22;10658;50.920;12.238;2023-09-07T00:37:37;14.80;99.90
21001;DHT22;10658;50.920;12.238;2023-09-07T00:41:38;14.60;99.90
21001;DHT22;10658;50.920;12.238;2023-09-07T00:45:39;14.50;99.90
21001;DHT22;10658;50.920;12.238;2023-09-07T00:49:40;14.30;99.90
21001;DHT22;10658;50.920;12.238;2023-09-07T00:53:42;14.30;99.90
21001;DHT22;10658;50.920;12.238;2023-09-07T00:57:43;14.30;99.90
21001;DHT22;10658;50.920;12.238;2023-09-07T01:01:44;14.20;99.90
21001;DHT22;10658;50.920;12.238;2023-09-07T01:06:04;14.30;99.90
21001;DHT22;10658;50.920;12.238;2023-09-07T01:10:08;14.20;99.90
21001;DHT22;10658;50.920;12.238;2023-09-07T01:14:09;14.10;99.90
21001;DHT22;10658;50.920;12.238;2023-09-07T01:18:11;14.20;99.90
21001;DHT22;10658;50.920;12.238;2023-09-07T01:22:13;14.00;99.90
21001;DHT22;10658;50.920;12.238;2023-09-07T01:26:15;13.90;99.90
21001;DHT22;10658;50.920;12.238;2023-09-07T01:30:16;13.90;99.90
21001;DHT22;10658;50.920;12.238;2023-09-07T01:34:18;13.80;99.90
21001;DHT22;10658;50.920;12.238;2023-09-07T01:38:18;13.80;99.90
21001;DHT22;10658;50.920;12.238;2023-09-07T01:42:19;13.80;99.90
21001;DHT22;10658;50.920;12.238;2023-09-07T01:46:22;13.70;99.90
21001;DHT22;10658;50.920;12.238;2023-09-07T01:50:23;13.60;99.90
21001;DHT22;10658;50.920;12.238;2023-09-07T01:54:26;13.60;99.90
21001;DHT22;10658;50.920;12.238;2023-09-07T01:58:28;13.70;99.90
21001;DHT22;10658;50.920;12.238;2023-09-07T02:02:28;13.60;99.90
21001;DHT22;10658;50.920;12.238;2023-09-07T02:06:29;13.50;99.90
21001;DHT22;10658;50.920;12.238;2023-09-07T02:10:30;13.40;99.90
21001;DHT22;10658;50.920;12.238;2023-09-07T02:14:31;13.30;99.90
21001;DHT22;10658;50.920;12.238;2023-09-07T02:18:32;13.40;99.90
21001;DHT22;10658;50.920;12.238;2023-09-07T02:22:36;13.20;99.90
21001;DHT22;10658;50.920;12.238;2023-09-07T02:26:37;13.10;99.90
21001;DHT22;10658;50.920;12.238;2023-09-07T02:30:44;13.10;99.90
21001;DHT22;10658;50.920;12.238;2023-09-07T02:34:44;13.10;99.90
21001;DHT22;10658;50.920;12.238;2023-09-07T02:38:45;13.10;99.90
21001;DHT22;10658;50.920;12.238;2023-09-07T02:42:47;13.10;99.90
21001;DHT22;10658;50.920;12.238;2023-09-07T02:46:47;13.10;99.90
21001;DHT22;10658;50.920;12.238;2023-09-07T02:50:49;13.00;99.90
21001;DHT22;10658;50.920;12.238;2023-09-07T02:54:51;12.90;99.90
21001;DHT22;10658;50.920;12.238;2023-09-07T02:58:52;12.90;99.90
21001;DHT22;10658;50.920;12.238;2023-09-07T03:02:53;12.90;99.90
21001;DHT22;10658;50.920;12.238;2023-09-07T03:06:54;12.90;99.90
21001;DHT22;10658;50.920;12.238;2023-09-07T03:10:55;12.80;99.90
21001;DHT22;10658;50.920;12.238;2023-09-07T03:14:56;12.70;99.90
21001;DHT22;10658;50.920;12.238;2023-09-07T03:18:57;12.70;99.90
21001;DHT22;10658;50.920;12.238;2023-09-07T03:22:58;12.60;99.90
21001;DHT22;10658;50.920;12.238;2023-09-07T03:26:59;12.70;99.90
21001;DHT22;10658;50.920;12.238;2023-09-07T03:31:00;12.70;99.90
21001;DHT22;10658;50.920;12.238;2023-09-07T03:35:03;12.60;99.90
21001;DHT22;10658;50.920;12.238;2023-09-07T03:39:10;12.60;99.90
21001;DHT22;10658;50.920;12.238;2023-09-07T03:43:10;12.60;99.90
21001;DHT22;10658;50.920;12.238;2023-09-07T03:47:14;12.50;99.90
21001;DHT22;10658;50.920;12.238;2023-09-07T03:51:16;12.50;99.90
21001;DHT22;10658;50.920;12.238;2023-09-07T03:55:17;12.40;99.90
21001;DHT22;10658;50.920;12.238;2023-09-07T03:59:18;12.50;99.90
21001;DHT22;10658;50.920;12.238;2023-09-07T04:03:19;12.40;99.90
21001;DHT22;10658;50.920;12.238;2023-09-07T04:07:22;12.30;99.90
21001;DHT22;10658;50.920;12.238;2023-09-07T04:11:25;12.20;99.90
21001;DHT22;10658;50.920;12.238;2023-09-07T04:15:27;12.30;99.90
21001;DHT22;10658;50.920;12.238;2023-09-07T04:19:31;12.20;99.90
21001;DHT22;10658;50.920;12.238;2023-09-07T04:23:35;12.20;99.90
21001;DHT22;10658;50.920;12.238;2023-09-07T04:27:39;12.10;99.90
21001;DHT22;10658;50.920;12.238;2023-09-07T04:31:44;12.00;99.90
21001;DHT22;10658;50.920;12.238;2023-09-07T04:35:47;12.00;99.90
21001;DHT22;10658;50.920;12.238;2023-09-07T04:39:52;11.90;99.90
21001;DHT22;10658;50.920;12.238;2023-09-07T04:43:58;11.90;99.90
21001;DHT22;10658;50.920;12.238;2023-09-07T04:48:00;12.00;99.90
21001;DHT22;10658;50.920;12.238;2023-09-07T04:52:03;12.10;99.90
21001;DHT22;10658;50.920;12.238;2023-09-07T04:56:06;12.00;99.90
21001;DHT22;10658;50.920;12.238;2023-09-07T05:00:09;12.00;99.90
21001;DHT22;10658;50.920;12.238;2023-09-07T05:04:12;12.00;99.90
21001;DHT22;10658;50.920;12.238;2023-09-07T05:08:13;12.10;99.90
21001;DHT22;10658;50.920;12.238;2023-09-07T05:12:15;12.20;99.90
21001;DHT22;10658;50.920;12.238;2023-09-07T05:16:19;12.40;99.90
21001;DHT22;10658;50.920;12.238;2023-09-07T05:20:22;12.60;99.90
21001;DHT22;10658;50.920;12.238;2023-09-07T05:24:23;12.70;99.90
21001;DHT22;10658;50.920;12.238;2023-09-07T05:28:26;12.80;99.90
21001;DHT22;10658;50.920;12.238;2023-09-07T05:32:30;13.10;99.90
21001;DHT22;10658;50.920;12.238;2023-09-07T05:36:33;13.30;99.90
21001;DHT22;10658;50.920;12.238;2023-09-07T05:40:36;13.50;99.90
21001;DHT22;10658;50.920;12.238;2023-09-07T05:44:38;13.80;99.90
21001;DHT22;10658;50.920;12.238;2023-09-07T05:48:40;14.20;99.90
21001;DHT22;10658;50.920;12.238;2023-09-07T05:52:43;14.50;99.90
21001;DHT22;10658;50.920;12.238;2023-09-07T05:56:45;14.80;99.90
21001;DHT22;10658;50.920;12.238;2023-09-07T06:00:47;15.20;99.90
21001;DHT22;10658;50.920;12.238;2023-09-07T06:04:49;15.50;99.90
21001;DHT22;10658;50.920;12.238;2023-09-07T06:08:55;15.90;99.90
21001;DHT22;10658;50.920;12.238;2023-09-07T06:12:59;16.30;99.90
21001;DHT22;10658;50.920;12.238;2023-09-07T06:17:03;16.80;99.90
21001;DHT22;10658;50.920;12.238;2023-09-07T06:21:07;17.30;99.90
21001;DHT22;10658;50.920;12.238;2023-09-07T06:25:11;17.90;99.90
21001;DHT22;10658;50.920;12.238;2023-09-07T06:29:16;18.30;99.90
21001;DHT22;10658;50.920;12.238;2023-09-07T06:33:20;18.70;99.90
21001;DHT22;10658;50.920;12.238;2023-09-07T06:37:24;19.10;99.90
21001;DHT22;10658;50.920;12.238;2023-09-07T06:41:28;19.50;99.90
21001;DHT22;10658;50.920;12.238;2023-09-07T06:45:36;19.90;99.90
21001;DHT22;10658;50.920;12.238;2023-09-07T06:49:42;20.40;99.90
21001;DHT22;10658;50.920;12.238;2023-09-07T06:53:45;20.80;99.90
21001;DHT22;10658;50.920;12.238;2023-09-07T06:57:49;21.10;99.90
21001;DHT22;10658;50.920;12.238;2023-09-07T07:01:53;21.50;99.90
21001;DHT22;10658;50.920;12.238;2023-09-07T07:05:58;22.00;99.90
21001;DHT22;10658;50.920;12.238;2023-09-07T07:10:04;21.90;99.90
21001;DHT22;10658;50.920;12.238;2023-09-07T07:14:08;21.90;99.90
21001;DHT22;10658;50.920;12.238;2023-09-07T07:18:14;21.80;99.90
21001;DHT22;10658;50.920;12.238;2023-09-07T07:22:22;21.80;99.90
21001;DHT22;10658;50.920;12.238;2023-09-07T07:26:27;22.00;99.90
21001;DHT22;10658;50.920;12.238;2023-09-07T07:30:29;22.70;99.90
21001;DHT22;10658;50.920;12.238;2023-09-07T07:34:32;23.20;99.90
21001;DHT22;10658;50.920;12.238;2023-09-07T07:38:36;23.50;99.90
21001;DHT22;10658;50.920;12.238;2023-09-07T07:42:38;23.70;99.90
21001;DHT22;10658;50.920;12.238;2023-09-07T07:46:40;24.20;99.90
21001;DHT22;10658;50.920;12.238;2023-09-07T07:50:47;24.50;99.90
21001;DHT22;10658;50.920;12.238;2023-09-07T07:54:54;24.90;99.90
21001;DHT22;10658;50.920;12.238;2023-09-07T07:58:56;25.30;99.90
21001;DHT22;10658;50.920;12.238;2023-09-07T08:02:58;25.50;99.90
21001;DHT22;10658;50.920;12.238;2023-09-07T08:07:00;25.60;99.90
21001;DHT22;10658;50.920;12.238;2023-09-07T08:11:07;25.60;99.90
21001;DHT22;10658;50.920;12.238;2023-09-07T08:15:11;25.80;99.90
21001;DHT22;10658;50.920;12.238;2023-09-07T08:19:13;26.10;99.90
21001;DHT22;10658;50.920;12.238;2023-09-07T08:23:15;26.50;99.90
21001;DHT22;10658;50.920;12.238;2023-09-07T08:27:17;26.50;99.90
21001;DHT22;10658;50.920;12.238;2023-09-07T08:31:25;26.50;99.90
21001;DHT22;10658;50.920;12.238;2023-09-07T08:35:27;26.50;99.90
21001;DHT22;10658;50.920;12.238;2023-09-07T08:39:29;26.70;99.90
21001;DHT22;10658;50.920;12.238;2023-09-07T08:43:39;26.80;99.90
21001;DHT22;10658;50.920;12.238;2023-09-07T08:47:46;26.80;99.90
21001;DHT22;10658;50.920;12.238;2023-09-07T08:51:50;27.00;99.90
21001;DHT22;10658;50.920;12.238;2023-09-07T08:55:53;27.00;99.90
21001;DHT22;10658;50.920;12.238;2023-09-07T08:59:54;27.10;99.90
21001;DHT22;10658;50.920;12.238;2023-09-07T09:03:56;27.30;99.90
21001;DHT22;10658;50.920;12.238;2023-09-07T09:08:04;27.50;99.90
21001;DHT22;10658;50.920;12.238;2023-09-07T09:12:11;27.60;99.90
21001;DHT22;10658;50.920;12.238;2023-09-07T09:16:13;27.90;99.90
21001;DHT22;10658;50.920;12.238;2023-09-07T09:20:22;28.30;99.90
21001;DHT22;10658;50.920;12.238;2023-09-07T09:24:24;28.50;99.90
21001;DHT22;10658;50.920;12.238;2023-09-07T09:28:26;28.60;99.90
21001;DHT22;10658;50.920;12.238;2023-09-07T09:32:32;28.60;99.90
21001;DHT22;10658;50.920;12.238;2023-09-07T09:36:36;28.80;99.90
21001;DHT22;10658;50.920;12.238;2023-09-07T09:40:39;28.80;99.90
21001;DHT22;10658;50.920;12.238;2023-09-07T09:44:41;29.00;99.90
21001;DHT22;10658;50.920;12.238;2023-09-07T09:48:45;29.40;99.90
21001;DHT22;10658;50.920;12.238;2023-09-07T09:52:47;29.30;99.90
21001;DHT22;10658;50.920;12.238;2023-09-07T09:56:49;29.50;99.90
21001;DHT22;10658;50.920;12.238;2023-09-07T10:00:56;29.70;99.90
21001;DHT22;10658;50.920;12.238;2023-09-07T10:05:09;30.00;99.90
21001;DHT22;10658;50.920;12.238;2023-09-07T10:09:13;30.20;99.90
21001;DHT22;10658;50.920;12.238;2023-09-07T10:13:30;30.10;99.90
21001;DHT22;10658;50.920;12.238;2023-09-07T10:17:35;30.10;99.90
21001;DHT22;10658;50.920;12.238;2023-09-07T10:21:43;30.40;99.90
21001;DHT22;10658;50.920;12.238;2023-09-07T10:25:53;30.60;99.90
21001;DHT22;10658;50.920;12.238;2023-09-07T10:30:00;30.40;99.90
21001;DHT22;10658;50.920;12.238;2023-09-07T10:34:10;30.80;99.90
21001;DHT22;10658;50.920;12.238;2023-09-07T10:38:15;31.10;99.90
21001;DHT22;10658;50.920;12.238;2023-09-07T10:42:34;31.30;99.90
21001;DHT22;10658;50.920;12.238;2023-09-07T10:46:37;31.40;99.90
21001;DHT22;10658;50.920;12.238;2023-09-07T10:50:46;31.40;99.90
21001;DHT22;10658;50.920;12.238;2023-09-07T10:54:59;31.50;99.90
21001;DHT22;10658;50.920;12.238;2023-09-07T10:59:06;31.80;99.90
21001;DHT22;10658;50.920;12.238;2023-09-07T11:03:20;31.80;99.90
21001;DHT22;10658;50.920;12.238;2023-09-07T11:07:24;31.60;99.90
21001;DHT22;10658;50.920;12.238;2023-09-07T11:11:34;31.30;99.90
21001;DHT22;10658;50.920;12.238;2023-09-07T11:15:37;31.00;99.90
21001;DHT22;10658;50.920;12.238;2023-09-07T11:19:44;31.20;99.90
21001;DHT22;10658;50.920;12.238;2023-09-07T11:23:46;31.00;99.90
21001;DHT22;10658;50.920;12.238;2023-09-07T11:27:51;31.00;99.90
21001;DHT22;10658;50.920;12.238;2023-09-07T11:31:54;30.90;99.90
21001;DHT22;10658;50.920;12.238;2023-09-07T11:36:02;31.00;99.90
21001;DHT22;10658;50.920;12.238;2023-09-07T11:40:05;31.20;99.90
21001;DHT22;10658;50.920;12.238;2023-09-07T11:44:16;31.00;99.90
21001;DHT22;10658;50.920;12.238;2023-09-07T11:48:19;30.80;99.90
21001;DHT22;10658;50.920;12.238;2023-09-07T11:52:21;31.00;99.90
21001;DHT22;10658;50.920;12.238;2023-09-07T11:56:23;31.20;99.90
21001;DHT22;10658;50.920;12.238;2023-09-07T12:00:25;31.20;99.90
21001;DHT22;10658;50.920;12.238;2023-09-07T12:04:27;31.20;99.90
21001;DHT22;10658;50.920;12.238;2023-09-07T12:08:29;31.30;99.90
21001;DHT22;10658;50.920;12.238;2023-09-07T12:12:31;31.50;99.90
21001;DHT22;10658;50.920;12.238;2023-09-07T12:16:33;31.30;99.90
21001;DHT22;10658;50.920;12.238;2023-09-07T12:20:34;31.30;99.90
21001;DHT22;10658;50.920;12.238;2023-09-07T12:24:36;31.40;99.90
21001;DHT22;10658;50.920;12.238;2023-09-07T12:28:38;31.60;99.90
21001;DHT22;10658;50.920;12.238;2023-09-07T12:32:41;31.70;99.90
21001;DHT22;10658;50.920;12.238;2023-09-07T12:36:43;31.50;99.90
21001;DHT22;10658;50.920;12.238;2023-09-07T12:40:44;31.40;99.90
21001;DHT22;10658;50.920;12.238;2023-09-07T12:44:46;31.30;99.90
21001;DHT22;10658;50.920;12.238;2023-09-07T12:48:48;31.50;99.90
21001;DHT22;10658;50.920;12.238;2023-09-07T12:52:49;31.50;99.90
21001;DHT22;10658;50.920;12.238;2023-09-07T12:56:51;31.40;99.90
21001;DHT22;10658;50.920;12.238;2023-09-07T13:00:54;31.30;99.90
21001;DHT22;10658;50.920;12.238;2023-09-07T13:04:56;31.40;99.90
21001;DHT22;10658;50.920;12.238;2023-09-07T13:08:58;31.70;99.90
21001;DHT22;10658;50.920;12.238;2023-09-07T13:12:59;31.70;99.90
21001;DHT22;10658;50.920;12.238;2023-09-07T13:17:01;31.80;99.90
21001;DHT22;10658;50.920;12.238;2023-09-07T13:21:03;31.70;99.90
21001;DHT22;10658;50.920;12.238;2023-09-07T13:25:05;31.70;99.90
21001;DHT22;10658;50.920;12.238;2023-09-07T13:29:07;31.50;99.90
21001;DHT22;10658;50.920;12.238;2023-09-07T13:33:09;31.30;99.90
21001;DHT22;10658;50.920;12.238;2023-09-07T13:37:11;31.10;99.90
21001;DHT22;10658;50.920;12.238;2023-09-07T13:41:13;30.70;99.90
21001;DHT22;10658;50.920;12.238;2023-09-07T13:45:15;30.50;99.90
21001;DHT22;10658;50.920;12.238;2023-09-07T13:49:17;30.10;99.90
21001;DHT22;10658;50.920;12.238;2023-09-07T13:53:19;30.00;99.90
21001;DHT22;10658;50.920;12.238;2023-09-07T13:57:20;29.80;99.90
21001;DHT22;10658;50.920;12.238;2023-09-07T14:01:22;29.40;99.90
21001;DHT22;10658;50.920;12.238;2023-09-07T14:05:24;29.30;99.90
21001;DHT22;10658;50.920;12.238;2023-09-07T14:09:27;29.30;99.90
21001;DHT22;10658;50.920;12.238;2023-09-07T14:13:29;29.60;99.90
21001;DHT22;10658;50.920;12.238;2023-09-07T14:17:31;30.30;99.90
21001;DHT22;10658;50.920;12.238;2023-09-07T14:21:32;31.10;99.90
21001;DHT22;10658;50.920;12.238;2023-09-07T14:25:34;31.50;99.90
21001;DHT22;10658;50.920;12.238;2023-09-07T14:29:36;32.00;99.90
21001;DHT22;10658;50.920;12.238;2023-09-07T14:33:38;32.30;99.90
21001;DHT22;10658;50.920;12.238;2023-09-07T14:37:40;32.70;99.90
21001;DHT22;10658;50.920;12.238;2023-09-07T14:41:41;32.90;99.90
21001;DHT22;10658;50.920;12.238;2023-09-07T14:45:44;33.00;99.60
21001;DHT22;10658;50.920;12.238;2023-09-07T14:49:46;33.10;99.50
21001;DHT22;10658;50.920;12.238;2023-09-07T14:53:48;32.90;98.90
21001;DHT22;10658;50.920;12.238;2023-09-07T14:57:50;32.80;98.70
21001;DHT22;10658;50.920;12.238;2023-09-07T15:01:52;32.70;98.40
21001;DHT22;10658;50.920;12.238;2023-09-07T15:05:54;32.70;98.80
21001;DHT22;10658;50.920;12.238;2023-09-07T15:09:55;32.90;98.80
21001;DHT22;10658;50.920;12.238;2023-09-07T15:13:57;32.60;98.00
21001;DHT22;10658;50.920;12.238;2023-09-07T15:17:59;32.00;98.40
21001;DHT22;10658;50.920;12.238;2023-09-07T15:22:02;31.30;98.90
21001;DHT22;10658;50.920;12.238;2023-09-07T15:26:04;30.70;99.60
21001;DHT22;10658;50.920;12.238;2023-09-07T15:30:05;30.30;99.90
21001;DHT22;10658;50.920;12.238;2023-09-07T15:34:07;29.90;99.80
21001;DHT22;10658;50.920;12.238;2023-09-07T15:38:09;29.70;99.90
21001;DHT22;10658;50.920;12.238;2023-09-07T15:42:11;29.30;99.90
21001;DHT22;10658;50.920;12.238;2023-09-07T15:46:13;29.20;99.90
21001;DHT22;10658;50.920;12.238;2023-09-07T15:50:15;29.00;99.90
21001;DHT22;10658;50.920;12.238;2023-09-07T15:54:17;28.90;99.90
21001;DHT22;10658;50.920;12.238;2023-09-07T15:58:20;28.80;99.90
21001;DHT22;10658;50.920;12.238;2023-09-07T16:02:21;28.60;99.90
21001;DHT22;10658;50.920;12.238;2023-09-07T16:06:22;28.50;99.90
21001;DHT22;10658;50.920;12.238;2023-09-07T16:10:23;28.20;99.90
21001;DHT22;10658;50.920;12.238;2023-09-07T16:14:26;28.00;99.90
21001;DHT22;10658;50.920;12.238;2023-09-07T16:18:29;27.80;99.90
21001;DHT22;10658;50.920;12.238;2023-09-07T16:22:32;27.60;99.90
21001;DHT22;10658;50.920;12.238;2023-09-07T16:26:35;27.50;99.90
21001;DHT22;10658;50.920;12.238;2023-09-07T16:30:37;27.30;99.90
21001;DHT22;10658;50.920;12.238;2023-09-07T16:34:41;27.20;99.90
21001;DHT22;10658;50.920;12.238;2023-09-07T16:38:43;27.20;99.90
21001;DHT22;10658;50.920;12.238;2023-09-07T16:42:45;27.00;99.90
21001;DHT22;10658;50.920;12.238;2023-09-07T16:46:47;26.90;99.90
21001;DHT22;10658;50.920;12.238;2023-09-07T16:50:49;26.80;99.90
21001;DHT22;10658;50.920;12.238;2023-09-07T16:54:51;26.60;99.90
21001;DHT22;10658;50.920;12.238;2023-09-07T16:58:54;26.50;99.90
21001;DHT22;10658;50.920;12.238;2023-09-07T17:02:56;26.30;99.90
21001;DHT22;10658;50.920;12.238;2023-09-07T17:06:59;26.10;99.90
21001;DHT22;10658;50.920;12.238;2023-09-07T17:11:01;26.00;99.90
21001;DHT22;10658;50.920;12.238;2023-09-07T17:15:04;25.80;99.90
21001;DHT22;10658;50.920;12.238;2023-09-07T17:19:06;25.70;99.90
21001;DHT22;10658;50.920;12.238;2023-09-07T17:23:09;25.50;99.90
21001;DHT22;10658;50.920;12.238;2023-09-07T17:27:14;25.30;99.90
21001;DHT22;10658;50.920;12.238;2023-09-07T17:31:16;25.10;99.90
21001;DHT22;10658;50.920;12.238;2023-09-07T17:35:18;24.90;99.90
21001;DHT22;10658;50.920;12.238;2023-09-07T17:39:20;24.60;99.90
21001;DHT22;10658;50.920;12.238;2023-09-07T17:43:22;24.50;99.90
21001;DHT22;10658;50.920;12.238;2023-09-07T17:47:24;24.20;99.90
21001;DHT22;10658;50.920;12.238;2023-09-07T17:51:26;23.90;99.90
21001;DHT22;10658;50.920;12.238;2023-09-07T17:55:29;23.70;99.90
21001;DHT22;10658;50.920;12.238;2023-09-07T17:59:35;23.40;99.90
21001;DHT22;10658;50.920;12.238;2023-09-07T18:03:37;23.20;99.90
21001;DHT22;10658;50.920;12.238;2023-09-07T18:07:39;23.10;99.90
21001;DHT22;10658;50.920;12.238;2023-09-07T18:11:40;22.80;99.90
21001;DHT22;10658;50.920;12.238;2023-09-07T18:15:45;22.60;99.90
21001;DHT22;10658;50.920;12.238;2023-09-07T18:19:56;22.40;99.90
21001;DHT22;10658;50.920;12.238;2023-09-07T18:24:11;22.30;99.90
21001;DHT22;10658;50.920;12.238;2023-09-07T18:28:26;22.20;99.90
21001;DHT22;10658;50.920;12.238;2023-09-07T18:32:36;22.10;99.90
21001;DHT22;10658;50.920;12.238;2023-09-07T18:37:14;22.00;99.90
21001;DHT22;10658;50.920;12.238;2023-09-07T18:41:18;21.90;99.90
21001;DHT22;10658;50.920;12.238;2023-09-07T18:45:34;21.90;99.90
21001;DHT22;10658;50.920;12.238;2023-09-07T18:49:40;21.70;99.90
21001;DHT22;10658;50.920;12.238;2023-09-07T18:54:03;21.60;99.90
21001;DHT22;10658;50.920;12.238;2023-09-07T18:58:39;21.50;99.90
21001;DHT22;10658;50.920;12.238;2023-09-07T19:03:02;21.40;99.90
21001;DHT22;10658;50.920;12.238;2023-09-07T19:07:23;21.20;99.90
21001;DHT22;10658;50.920;12.238;2023-09-07T19:12:14;21.10;99.90
21001;DHT22;10658;50.920;12.238;2023-09-07T19:17:26;21.00;99.90
21001;DHT22;10658;50.920;12.238;2023-09-07T19:22:14;20.90;99.90
21001;DHT22;10658;50.920;12.238;2023-09-07T19:26:41;20.80;99.90
21001;DHT22;10658;50.920;12.238;2023-09-07T19:31:25;20.60;99.90
21001;DHT22;10658;50.920;12.238;2023-09-07T20:00:23;19.90;99.90
21001;DHT22;10658;50.920;12.238;2023-09-07T20:04:51;19.90;99.90
21001;DHT22;10658;50.920;12.238;2023-09-07T20:09:37;19.80;99.90
21001;DHT22;10658;50.920;12.238;2023-09-07T20:15:21;19.80;99.90
21001;DHT22;10658;50.920;12.238;2023-09-07T20:20:20;19.60;99.90
21001;DHT22;10658;50.920;12.238;2023-09-07T20:25:11;19.50;99.90
21001;DHT22;10658;50.920;12.238;2023-09-07T20:29:41;19.40;99.90
21001;DHT22;10658;50.920;12.238;2023-09-07T20:33:42;19.40;99.90
21001;DHT22;10658;50.920;12.238;2023-09-07T20:37:43;19.30;99.90
21001;DHT22;10658;50.920;12.238;2023-09-07T20:41:45;19.20;99.90
21001;DHT22;10658;50.920;12.238;2023-09-07T20:45:53;19.20;99.90
21001;DHT22;10658;50.920;12.238;2023-09-07T20:49:54;19.10;99.90
21001;DHT22;10658;50.920;12.238;2023-09-07T20:53:55;19.00;99.90
21001;DHT22;10658;50.920;12.238;2023-09-07T20:57:55;18.90;99.90
21001;DHT22;10658;50.920;12.238;2023-09-07T21:01:57;18.90;99.90
21001;DHT22;10658;50.920;12.238;2023-09-07T21:05:57;18.80;99.90
21001;DHT22;10658;50.920;12.238;2023-09-07T21:09:58;18.70;99.90
21001;DHT22;10658;50.920;12.238;2023-09-07T21:13:59;18.60;99.90
21001;DHT22;10658;50.920;12.238;2023-09-07T21:18:00;18.50;99.90
21001;DHT22;10658;50.920;12.238;2023-09-07T21:22:01;18.40;99.90
21001;DHT22;10658;50.920;12.238;2023-09-07T21:26:01;18.40;99.90
21001;DHT22;10658;50.920;12.238;2023-09-07T21:30:03;18.30;99.90
21001;DHT22;10658;50.920;12.238;2023-09-07T21:34:04;18.30;99.90
21001;DHT22;10658;50.920;12.238;2023-09-07T21:38:05;18.20;99.90
21001;DHT22;10658;50.920;12.238;2023-09-07T21:42:06;18.10;99.90
21001;DHT22;10658;50.920;12.238;2023-09-07T21:46:07;18.00;99.90
21001;DHT22;10658;50.920;12.238;2023-09-07T21:50:08;18.10;99.90
21001;DHT22;10658;50.920;12.238;2023-09-07T21:54:09;18.00;99.90
21001;DHT22;10658;50.920;12.238;2023-09-07T21:58:09;18.00;99.90
21001;DHT22;10658;50.920;12.238;2023-09-07T22:02:10;17.90;99.90
21001;DHT22;10658;50.920;12.238;2023-09-07T22:06:11;17.80;99.90
21001;DHT22;10658;50.920;12.238;2023-09-07T22:10:11;17.60;99.90
21001;DHT22;10658;50.920;12.238;2023-09-07T22:14:13;17.40;99.90
21001;DHT22;10658;50.920;12.238;2023-09-07T22:18:14;17.40;99.90
21001;DHT22;10658;50.920;12.238;2023-09-07T22:22:15;17.30;99.90
21001;DHT22;10658;50.920;12.238;2023-09-07T22:26:16;17.10;99.90
21001;DHT22;10658;50.920;12.238;2023-09-07T22:30:17;16.80;99.90
21001;DHT22;10658;50.920;12.238;2023-09-07T22:34:18;16.70;99.90
21001;DHT22;10658;50.920;12.238;2023-09-07T22:38:18;16.70;99.90
21001;DHT22;10658;50.920;12.238;2023-09-07T22:42:19;16.60;99.90
21001;DHT22;10658;50.920;12.238;2023-09-07T22:46:20;16.30;99.90
21001;DHT22;10658;50.920;12.238;2023-09-07T22:50:21;16.10;99.90
21001;DHT22;10658;50.920;12.238;2023-09-07T22:54:21;15.90;99.90
21001;DHT22;10658;50.920;12.238;2023-09-07T22:58:22;15.60;99.90
21001;DHT22;10658;50.920;12.238;2023-09-07T23:02:23;15.70;99.90
21001;DHT22;10658;50.920;12.238;2023-09-07T23:06:24;15.70;99.90
21001;DHT22;10658;50.920;12.238;2023-09-07T23:10:24;15.90;99.90
21001;DHT22;10658;50.920;12.238;2023-09-07T23:14:25;16.00;99.90
21001;DHT22;10658;50.920;12.238;2023-09-07T23:18:26;16.20;99.90
21001;DHT22;10658;50.920;12.238;2023-09-07T23:22:27;16.10;99.90
21001;DHT22;10658;50.920;12.238;2023-09-07T23:26:27;16.20;99.90
21001;DHT22;10658;50.920;12.238;2023-09-07T23:30:28;16.20;99.90
21001;DHT22;10658;50.920;12.238;2023-09-07T23:34:29;16.30;99.90
21001;DHT22;10658;50.920;12.238;2023-09-07T23:38:30;16.30;99.90
21001;DHT22;10658;50.920;12.238;2023-09-07T23:42:31;16.20;99.90
21001;DHT22;10658;50.920;12.238;2023-09-07T23:46:31;16.30;99.90
21001;DHT22;10658;50.920;12.238;2023-09-07T23:50:32;16.10;99.90
21001;DHT22;10658;50.920;12.238;2023-09-07T23:54:33;16.10;99.90
21001;DHT22;10658;50.920;12.238;2023-09-07T23:58:35;16.10;99.90
